Terminal Aerodrome Forecast
Issued by NWS

Home | Current Version | Previous Version | Text Only | Print | Product List | Glossary On
Versions: 1 2 3 4 5 6 7 8 9 10 11 12 13
000
FTUS45 KABQ 261700
TAFSAF
TAF
KSAF 261729Z 2618/2718 31008KT P6SM FEW250
      TEMPO 2619/2621 31011G21KT
     FM270300 36008KT P6SM FEW250
      TEMPO 2711/2715 36013G20KT=

USA.gov is the U.S. government's official web portal to all federal, state and local government web resources and services.